createdAt,value
2019-04-07T00:00:50.482Z,26.17
2019-04-07T00:03:19.584Z,25.37
2019-04-07T00:05:48.454Z,26.87
2019-04-07T00:08:17.828Z,23.73
2019-04-07T00:10:46.849Z,27.00
2019-04-07T00:13:16.112Z,22.62
2019-04-07T00:15:45.223Z,26.75
2019-04-07T00:18:14.379Z,25.88
2019-04-07T00:20:43.785Z,26.00
2019-04-07T00:23:13.135Z,25.15
2019-04-07T00:25:42.175Z,24.27
2019-04-07T00:28:11.821Z,26.65
2019-04-07T00:30:40.754Z,25.60
2019-04-07T00:33:09.602Z,25.72
2019-04-07T00:35:38.901Z,25.97
2019-04-07T00:38:08.322Z,25.25
2019-04-07T00:40:38.190Z,22.87
2019-04-07T00:43:07.356Z,23.25
2019-04-07T00:45:36.193Z,25.12
2019-04-07T00:48:05.733Z,25.20
2019-04-07T00:50:34.884Z,21.00
2019-04-07T00:53:04.342Z,26.55
2019-04-07T00:55:33.469Z,23.45
2019-04-07T00:58:02.580Z,25.77
2019-04-07T01:00:33.390Z,28.32
2019-04-07T01:03:02.895Z,25.55
2019-04-07T01:05:38.514Z,26.35
2019-04-07T01:08:09.571Z,29.70
2019-04-07T01:10:41.785Z,31.93
2019-04-07T01:13:14.392Z,27.73
2019-04-07T01:15:49.365Z,30.45
2019-04-07T01:18:21.608Z,30.12
2019-04-07T01:23:25.964Z,28.38
2019-04-07T01:25:58.526Z,30.08
2019-04-07T01:28:30.853Z,25.57
2019-04-07T01:31:03.390Z,31.23
2019-04-07T01:33:36.561Z,29.48
2019-04-07T01:36:09.502Z,28.60
2019-04-07T01:38:41.217Z,28.75
2019-04-07T01:41:20.375Z,30.75
2019-04-07T01:43:57.608Z,32.95
2019-04-07T01:46:34.044Z,31.40
2019-04-07T01:49:09.390Z,30.23
2019-04-07T01:51:45.487Z,32.85
2019-04-07T01:54:19.563Z,30.17
2019-04-07T01:56:56.474Z,29.27
2019-04-07T01:59:46.737Z,32.40
2019-04-07T02:02:24.850Z,30.60
2019-04-07T02:04:58.134Z,30.57
2019-04-07T02:07:34.931Z,29.35
2019-04-07T02:10:10.880Z,30.05
2019-04-07T02:13:01.078Z,31.05
2019-04-07T02:15:38.554Z,28.95
2019-04-07T02:18:12.377Z,29.32
2019-04-07T02:21:04.407Z,27.42
2019-04-07T02:23:40.747Z,27.20
2019-04-07T02:26:11.439Z,30.57
2019-04-07T02:28:54.380Z,28.57
2019-04-07T02:31:42.775Z,30.17
2019-04-07T02:34:13.504Z,32.10
2019-04-07T02:36:50.041Z,28.70
2019-04-07T02:39:26.988Z,27.35
2019-04-07T02:41:57.841Z,28.83
2019-04-07T02:44:31.597Z,30.97
2019-04-07T02:47:11.188Z,28.98
2019-04-07T02:49:44.448Z,29.05
2019-04-07T02:52:14.898Z,30.45
2019-04-07T02:54:47.721Z,29.72
2019-04-07T02:57:24.298Z,31.05
2019-04-07T03:00:04.490Z,28.12
2019-04-07T03:02:47.727Z,26.73
2019-04-07T03:05:28.118Z,27.82
2019-04-07T03:07:59.471Z,27.30
2019-04-07T03:10:31.091Z,26.05
2019-04-07T03:13:04.992Z,29.07
2019-04-07T03:15:48.629Z,26.93
2019-04-07T03:18:24.221Z,33.33
2019-04-07T03:20:54.162Z,26.40
2019-04-07T03:23:30.502Z,25.90
2019-04-07T03:26:02.214Z,18.23
2019-04-07T03:28:33.349Z,16.87
2019-04-07T03:31:17.655Z,20.20
2019-04-07T03:34:06.197Z,18.17
2019-04-07T03:37:09.724Z,19.45
2019-04-07T03:39:24.542Z,21.02
2019-04-07T03:42:01.069Z,19.70
2019-04-07T03:44:32.313Z,16.35
2019-04-07T03:47:06.939Z,15.03
2019-04-07T03:49:49.678Z,14.70
2019-04-07T03:52:21.111Z,14.87
2019-04-07T03:54:57.804Z,15.60
2019-04-07T03:57:31.290Z,14.18
2019-04-07T04:00:18.892Z,12.80
2019-04-07T04:02:59.210Z,15.53
2019-04-07T04:05:29.776Z,14.13
2019-04-07T04:08:00.840Z,14.53
2019-04-07T04:10:31.507Z,13.85
2019-04-07T04:13:01.968Z,13.55
2019-04-07T04:15:32.872Z,13.83
2019-04-07T04:18:01.887Z,11.63
2019-04-07T04:20:30.715Z,14.65
2019-04-07T04:22:59.805Z,12.85
2019-04-07T04:25:28.715Z,12.05
2019-04-07T04:27:57.575Z,13.03
2019-04-07T04:30:26.417Z,14.10
2019-04-07T04:32:55.420Z,15.75
2019-04-07T04:35:24.655Z,22.13
2019-04-07T04:37:54.958Z,15.70
2019-04-07T04:40:24.317Z,14.80
2019-04-07T04:42:53.644Z,13.22
2019-04-07T04:45:22.833Z,14.78
2019-04-07T04:47:51.805Z,14.83
2019-04-07T04:50:21.173Z,17.17
2019-04-07T04:52:50.173Z,16.02
2019-04-07T04:55:19.015Z,14.80
2019-04-07T04:57:48.034Z,13.95
2019-04-07T05:00:17.775Z,15.43
2019-04-07T05:02:47.630Z,18.77
2019-04-07T05:05:16.984Z,17.60
2019-04-07T05:07:54.046Z,17.17
2019-04-07T05:10:17.091Z,18.25
2019-04-07T05:12:46.089Z,15.20
2019-04-07T05:15:14.963Z,16.30
2019-04-07T05:17:43.791Z,16.32
2019-04-07T05:20:13.551Z,19.45
2019-04-07T05:22:43.305Z,15.50
2019-04-07T05:25:13.059Z,17.45
2019-04-07T05:27:42.437Z,18.10
2019-04-07T05:30:12.377Z,20.48
2019-04-07T05:32:41.745Z,16.15
2019-04-07T05:35:10.727Z,17.25
2019-04-07T05:37:39.569Z,18.35
2019-04-07T05:40:09.100Z,19.12
2019-04-07T05:42:38.869Z,21.52
2019-04-07T05:45:08.411Z,21.57
2019-04-07T05:47:37.486Z,18.00
2019-04-07T05:50:07.412Z,19.87
2019-04-07T05:52:39.555Z,20.40
2019-04-07T05:55:07.723Z,18.55
2019-04-07T05:57:36.852Z,19.98
2019-04-07T06:00:11.128Z,21.75
2019-04-07T06:02:39.142Z,20.30
2019-04-07T06:05:08.061Z,19.62
2019-04-07T06:07:37.763Z,20.12
2019-04-07T06:10:08.951Z,22.48
2019-04-07T06:12:41.419Z,18.75
2019-04-07T06:15:09.676Z,18.98
2019-04-07T06:17:39.097Z,17.60
2019-04-07T06:20:12.070Z,19.87
2019-04-07T06:22:39.021Z,20.40
2019-04-07T06:25:09.586Z,17.82
2019-04-07T06:27:39.295Z,22.25
2019-04-07T06:30:11.826Z,19.67
2019-04-07T06:32:43.574Z,20.37
2019-04-07T06:35:13.400Z,21.23
2019-04-07T06:37:41.869Z,18.37
2019-04-07T06:40:11.157Z,17.87
2019-04-07T06:42:40.582Z,15.68
2019-04-07T06:45:11.910Z,17.17
2019-04-07T06:47:43.162Z,18.82
2019-04-07T06:50:23.390Z,15.98
2019-04-07T06:52:59.698Z,15.00
2019-04-07T06:55:33.313Z,14.13
2019-04-07T06:58:08.424Z,12.18
2019-04-07T07:00:56.731Z,14.13
2019-04-07T07:03:43.549Z,15.43
2019-04-07T07:06:26.756Z,15.38
2019-04-07T07:08:57.396Z,16.55
2019-04-07T07:11:34.755Z,18.85
2019-04-07T07:14:31.223Z,15.43
2019-04-07T07:16:58.740Z,14.55
2019-04-07T07:19:47.662Z,15.93
2019-04-07T07:22:20.794Z,17.40
2019-04-07T07:24:50.270Z,19.65
2019-04-07T07:27:19.376Z,15.68
2019-04-07T07:29:51.689Z,18.05
2019-04-07T07:32:18.691Z,17.62
2019-04-07T07:34:47.748Z,19.17
2019-04-07T07:37:16.856Z,19.50
2019-04-07T07:39:46.277Z,20.17
2019-04-07T07:42:16.035Z,18.17
2019-04-07T07:44:44.904Z,17.12
2019-04-07T07:47:14.507Z,21.20
2019-04-07T07:49:43.851Z,20.77
2019-04-07T07:52:16.545Z,16.93
2019-04-07T07:54:45.898Z,16.37
2019-04-07T07:57:14.365Z,16.10
2019-04-07T07:59:44.037Z,18.60
2019-04-07T08:02:17.499Z,17.95
2019-04-07T08:04:44.470Z,18.48
2019-04-07T08:07:15.539Z,16.32
2019-04-07T08:09:44.476Z,17.92
2019-04-07T08:12:13.442Z,18.75
2019-04-07T08:14:42.649Z,15.83
2019-04-07T08:17:12.289Z,16.65
2019-04-07T08:19:43.942Z,16.80
2019-04-07T08:22:11.863Z,15.63
2019-04-07T08:24:40.717Z,13.48
2019-04-07T08:27:10.576Z,12.23
2019-04-07T08:29:39.834Z,13.30
2019-04-07T08:32:08.770Z,10.80
2019-04-07T08:34:37.643Z,15.63
2019-04-07T08:37:06.489Z,12.93
2019-04-07T08:39:36.553Z,13.38
2019-04-07T08:42:09.781Z,14.07
2019-04-07T08:44:36.724Z,11.20
2019-04-07T08:47:06.589Z,12.20
2019-04-07T08:49:36.498Z,11.48
2019-04-07T08:52:09.082Z,11.22
2019-04-07T08:54:36.867Z,9.53
2019-04-07T08:57:05.853Z,9.85
2019-04-07T08:59:35.330Z,15.30
2019-04-07T09:02:05.409Z,8.50
2019-04-07T09:04:34.550Z,8.53
2019-04-07T09:07:04.376Z,9.35
2019-04-07T09:09:36.879Z,8.03
2019-04-07T09:12:04.850Z,9.83
2019-04-07T09:14:37.264Z,6.35
2019-04-07T09:17:06.207Z,10.38
2019-04-07T09:19:42.664Z,8.80
2019-04-07T09:22:19.857Z,8.23
2019-04-07T09:24:50.872Z,9.63
2019-04-07T09:27:24.624Z,12.18
2019-04-07T09:30:05.974Z,8.75
2019-04-07T09:32:54.667Z,11.83
2019-04-07T09:35:33.913Z,9.60
2019-04-07T09:38:13.137Z,8.48
2019-04-07T09:40:52.705Z,9.63
2019-04-07T09:43:26.234Z,7.87
2019-04-07T09:46:11.921Z,8.13
2019-04-07T09:48:58.931Z,12.13
2019-04-07T09:51:41.231Z,8.98
2019-04-07T09:54:11.097Z,7.15
2019-04-07T09:56:50.877Z,7.15
2019-04-07T09:59:33.920Z,8.75
2019-04-07T10:02:06.299Z,7.90
2019-04-07T10:04:42.719Z,8.68
2019-04-07T10:07:17.234Z,7.75
2019-04-07T10:09:48.095Z,5.87
2019-04-07T10:12:18.558Z,9.63
2019-04-07T10:14:55.238Z,9.43
2019-04-07T10:17:38.432Z,11.08
2019-04-07T10:20:22.885Z,8.98
2019-04-07T10:23:01.887Z,9.28
2019-04-07T10:25:49.473Z,8.70
2019-04-07T10:28:23.328Z,7.22
2019-04-07T10:31:00.088Z,7.35
2019-04-07T10:33:47.110Z,7.15
2019-04-07T10:36:20.685Z,9.25
2019-04-07T10:38:54.123Z,6.50
2019-04-07T10:41:41.161Z,5.83
2019-04-07T10:44:30.341Z,5.30
2019-04-07T10:47:01.543Z,7.12
2019-04-07T10:49:32.944Z,4.23
2019-04-07T10:52:04.434Z,7.08
2019-04-07T10:54:38.165Z,5.95
2019-04-07T10:57:17.858Z,6.95
2019-04-07T10:59:51.347Z,9.05
2019-04-07T11:02:24.975Z,5.45
2019-04-07T11:04:56.341Z,8.18
2019-04-07T11:07:43.755Z,6.22
2019-04-07T11:10:34.495Z,7.90
2019-04-07T11:13:15.788Z,6.30
2019-04-07T11:15:56.032Z,6.45
2019-04-07T11:18:32.618Z,5.83
2019-04-07T11:21:03.412Z,5.35
2019-04-07T11:23:49.109Z,7.17
2019-04-07T11:26:28.565Z,7.87
2019-04-07T11:29:02.693Z,6.75
2019-04-07T11:31:36.869Z,7.50
2019-04-07T11:34:19.580Z,6.67
2019-04-07T11:37:09.078Z,6.92
2019-04-07T11:39:38.220Z,5.83
2019-04-07T11:42:15.232Z,5.22
2019-04-07T11:44:48.801Z,6.25
2019-04-07T11:47:19.696Z,6.05
2019-04-07T11:49:50.624Z,7.80
2019-04-07T11:52:21.078Z,6.42
2019-04-07T11:55:03.642Z,7.78
2019-04-07T11:57:34.094Z,7.58
2019-04-07T12:00:04.727Z,7.80
2019-04-07T12:02:41.000Z,8.98
2019-04-07T12:05:15.984Z,8.88
2019-04-07T12:07:58.365Z,7.60
2019-04-07T12:10:36.482Z,7.50
2019-04-07T12:13:16.510Z,8.38
2019-04-07T12:15:56.902Z,7.50
2019-04-07T12:18:32.012Z,6.55
2019-04-07T12:21:07.600Z,7.40
2019-04-07T12:23:46.963Z,5.20
2019-04-07T12:26:37.997Z,7.40
2019-04-07T12:29:05.875Z,5.72
2019-04-07T12:31:46.483Z,6.05
2019-04-07T12:34:20.149Z,6.87
2019-04-07T12:37:03.027Z,6.03
2019-04-07T12:39:33.666Z,7.12
2019-04-07T12:42:15.682Z,5.97
2019-04-07T12:44:58.269Z,7.95
2019-04-07T12:47:32.042Z,5.62
2019-04-07T12:50:08.245Z,5.15
2019-04-07T12:52:54.047Z,5.05
2019-04-07T12:55:25.072Z,5.80
2019-04-07T12:58:04.909Z,5.62
2019-04-07T13:00:57.871Z,4.55
2019-04-07T13:03:28.944Z,6.30
2019-04-07T13:08:32.641Z,6.20
2019-04-07T13:11:11.799Z,5.20
2019-04-07T13:13:41.838Z,6.20
2019-04-07T13:16:17.657Z,5.10
2019-04-07T13:18:53.115Z,8.30
2019-04-07T13:21:25.007Z,6.45
2019-04-07T13:24:03.628Z,7.20
2019-04-07T13:26:36.623Z,5.90
2019-04-07T13:29:17.306Z,6.72
2019-04-07T13:31:48.128Z,4.50
2019-04-07T13:34:28.574Z,4.62
2019-04-07T13:37:02.345Z,4.50
2019-04-07T13:39:51.156Z,7.47
2019-04-07T13:42:27.877Z,4.80
2019-04-07T13:45:09.529Z,4.95
2019-04-07T13:47:57.894Z,5.33
2019-04-07T13:50:31.959Z,6.90
2019-04-07T13:53:03.058Z,4.42
2019-04-07T13:55:42.620Z,4.97
2019-04-07T13:58:29.211Z,5.20
2019-04-07T14:01:08.474Z,5.65
2019-04-07T14:03:45.242Z,5.65
2019-04-07T14:06:16.348Z,4.08
2019-04-07T14:08:58.277Z,5.07
2019-04-07T14:11:53.133Z,7.07
2019-04-07T14:14:12.366Z,3.42
2019-04-07T14:16:49.699Z,5.50
2019-04-07T14:19:21.087Z,4.97
2019-04-07T14:21:55.689Z,4.37
2019-04-07T14:24:38.390Z,6.28
2019-04-07T14:27:12.220Z,5.70
2019-04-07T14:29:50.013Z,5.67
2019-04-07T14:32:20.914Z,6.03
2019-04-07T14:35:08.335Z,6.40
2019-04-07T14:37:51.285Z,4.22
2019-04-07T14:40:26.123Z,4.60
2019-04-07T14:43:13.568Z,4.12
2019-04-07T14:45:59.746Z,5.30
2019-04-07T14:48:30.138Z,7.58
2019-04-07T14:51:01.224Z,7.30
2019-04-07T14:53:31.964Z,6.35
2019-04-07T14:56:17.625Z,6.42
2019-04-07T14:58:53.936Z,7.83
2019-04-07T15:01:36.820Z,7.08
2019-04-07T15:04:06.445Z,5.55
2019-04-07T15:06:35.565Z,8.95
2019-04-07T15:09:08.146Z,5.75
2019-04-07T15:11:38.770Z,4.97
2019-04-07T15:14:08.298Z,7.05
2019-04-07T15:16:38.192Z,6.03
2019-04-07T15:19:07.194Z,6.25
2019-04-07T15:21:36.310Z,6.50
2019-04-07T15:24:07.225Z,6.12
2019-04-07T15:26:35.788Z,6.95
2019-04-07T15:29:07.248Z,5.58
2019-04-07T15:31:35.113Z,6.33
2019-04-07T15:34:06.521Z,5.95
2019-04-07T15:36:34.533Z,6.00
2019-04-07T15:39:03.601Z,5.12
2019-04-07T15:41:32.737Z,5.37
2019-04-07T15:44:06.214Z,8.55
2019-04-07T15:46:32.280Z,6.60
2019-04-07T15:49:01.096Z,6.03
2019-04-07T15:51:34.111Z,9.75
2019-04-07T15:54:00.757Z,9.95
2019-04-07T15:56:30.363Z,6.62
2019-04-07T15:59:01.778Z,7.53
2019-04-07T16:01:29.931Z,8.00
2019-04-07T16:03:59.209Z,6.70
2019-04-07T16:06:28.211Z,7.03
2019-04-07T16:08:59.760Z,8.50
2019-04-07T16:11:30.289Z,5.03
2019-04-07T16:13:58.346Z,10.30
2019-04-07T16:16:29.171Z,8.93
2019-04-07T16:18:57.818Z,5.42
2019-04-07T16:21:28.919Z,9.53
2019-04-07T16:23:57.301Z,9.20
2019-04-07T16:26:26.300Z,11.83
2019-04-07T16:28:55.235Z,10.25
2019-04-07T16:31:25.509Z,11.15
2019-04-07T16:33:54.491Z,8.85
2019-04-07T16:36:25.399Z,8.33
2019-04-07T16:38:54.874Z,10.85
2019-04-07T16:41:24.791Z,11.22
2019-04-07T16:43:53.832Z,9.45
2019-04-07T16:46:24.415Z,9.73
2019-04-07T16:48:53.382Z,9.60
2019-04-07T16:51:26.427Z,8.93
2019-04-07T16:53:53.179Z,8.65
2019-04-07T16:56:23.325Z,10.00
2019-04-07T16:58:53.368Z,13.10
2019-04-07T17:01:24.270Z,9.68
2019-04-07T17:03:52.829Z,8.98
2019-04-07T17:06:22.937Z,9.75
2019-04-07T17:08:53.185Z,10.72
2019-04-07T17:11:22.604Z,11.30
2019-04-07T17:13:51.413Z,9.25
2019-04-07T17:16:22.930Z,8.65
2019-04-07T17:18:51.097Z,8.60
2019-04-07T17:21:21.136Z,11.38
2019-04-07T17:23:53.146Z,12.85
2019-04-07T17:26:21.821Z,10.60
2019-04-07T17:28:50.944Z,10.13
2019-04-07T17:31:20.724Z,10.18
2019-04-07T17:33:49.666Z,13.22
2019-04-07T17:36:21.028Z,10.50
2019-04-07T17:38:50.580Z,10.10
2019-04-07T17:41:20.102Z,10.55
2019-04-07T17:44:00.881Z,11.60
2019-04-07T17:46:40.740Z,10.65
2019-04-07T17:49:23.399Z,10.43
2019-04-07T17:51:52.080Z,11.38
2019-04-07T17:54:22.998Z,10.30
2019-04-07T17:57:04.422Z,12.80
2019-04-07T17:59:35.653Z,10.95
2019-04-07T18:02:13.003Z,13.85
2019-04-07T18:04:46.222Z,10.58
2019-04-07T18:07:21.308Z,8.90
2019-04-07T18:09:53.187Z,8.13
2019-04-07T18:12:27.019Z,9.38
2019-04-07T18:15:09.874Z,10.45
2019-04-07T18:17:51.147Z,9.98
2019-04-07T18:20:31.564Z,10.95
2019-04-07T18:23:03.292Z,13.65
2019-04-07T18:25:43.311Z,13.45
2019-04-07T18:28:21.501Z,10.40
2019-04-07T18:30:49.489Z,12.05
2019-04-07T18:33:23.011Z,13.43
2019-04-07T18:35:56.319Z,15.10
2019-04-07T18:38:46.382Z,12.40
2019-04-07T18:41:14.578Z,15.48
2019-04-07T18:43:52.185Z,12.37
2019-04-07T18:46:17.873Z,13.70
2019-04-07T18:49:06.747Z,11.57
2019-04-07T18:51:52.506Z,12.98
2019-04-07T18:54:39.935Z,13.28
2019-04-07T18:57:16.667Z,11.25
2019-04-07T19:00:05.934Z,13.75
2019-04-07T19:02:53.638Z,10.63
2019-04-07T19:05:24.593Z,10.48
2019-04-07T19:08:00.928Z,10.18
2019-04-07T19:10:45.390Z,10.32
2019-04-07T19:13:17.657Z,10.30
2019-04-07T19:18:41.521Z,10.23
2019-04-07T19:21:13.828Z,14.40
2019-04-07T19:23:45.193Z,11.65
2019-04-07T19:26:31.564Z,10.23
2019-04-07T19:29:04.319Z,10.25
2019-04-07T19:31:38.298Z,18.05
2019-04-07T19:34:28.508Z,10.43
2019-04-07T19:36:58.510Z,9.90
2019-04-07T19:39:29.608Z,12.68
2019-04-07T19:42:04.543Z,11.78
2019-04-07T19:44:51.063Z,8.83
2019-04-07T19:47:21.030Z,11.55
2019-04-07T19:50:03.686Z,10.80
2019-04-07T19:52:50.983Z,11.25
2019-04-07T19:55:26.360Z,15.60
2019-04-07T19:58:02.733Z,11.03
2019-04-07T20:00:37.419Z,10.18
2019-04-07T20:03:24.312Z,10.88
2019-04-07T20:05:58.493Z,10.75
2019-04-07T20:08:34.504Z,11.28
2019-04-07T20:11:10.220Z,10.03
2019-04-07T20:13:41.031Z,12.60
2019-04-07T20:16:15.555Z,9.08
2019-04-07T20:19:03.003Z,10.82
2019-04-07T20:21:42.777Z,14.65
2019-04-07T20:24:20.513Z,10.82
2019-04-07T20:26:54.546Z,10.60
2019-04-07T20:29:41.468Z,10.70
2019-04-07T20:32:10.959Z,11.73
2019-04-07T20:34:57.435Z,12.07
2019-04-07T20:37:44.002Z,14.35
2019-04-07T20:40:29.667Z,11.83
2019-04-07T20:43:02.745Z,17.62
2019-04-07T20:45:36.579Z,16.73
2019-04-07T20:48:07.294Z,12.70
2019-04-07T20:50:43.702Z,15.43
2019-04-07T20:53:17.693Z,12.47
2019-04-07T20:55:53.995Z,14.80
2019-04-07T20:58:26.649Z,14.80
2019-04-07T21:01:17.278Z,13.58
2019-04-07T21:03:47.649Z,12.13
2019-04-07T21:06:25.396Z,14.10
2019-04-07T21:08:56.718Z,13.38
2019-04-07T21:11:27.911Z,13.40
2019-04-07T21:14:07.426Z,13.98
2019-04-07T21:16:41.222Z,14.75
2019-04-07T21:19:14.383Z,14.20
2019-04-07T21:21:53.764Z,19.48
2019-04-07T21:24:30.315Z,17.82
2019-04-07T21:27:17.484Z,16.07
2019-04-07T21:29:54.057Z,14.07
2019-04-07T21:32:24.854Z,15.55
2019-04-07T21:35:10.845Z,16.67
2019-04-07T21:37:58.329Z,15.90
2019-04-07T21:40:42.305Z,15.45
2019-04-07T21:43:29.398Z,13.20
2019-04-07T21:46:00.432Z,14.07
2019-04-07T21:48:46.168Z,13.33
2019-04-07T21:51:25.381Z,15.08
2019-04-07T21:54:02.324Z,13.68
2019-04-07T21:56:30.863Z,13.00
2019-04-07T21:59:18.551Z,12.88
2019-04-07T22:02:09.112Z,14.60
2019-04-07T22:04:45.803Z,17.12
2019-04-07T22:07:33.517Z,16.15
2019-04-07T22:10:07.414Z,16.35
2019-04-07T22:12:36.501Z,17.45
2019-04-07T22:15:11.638Z,16.85
2019-04-07T22:17:39.267Z,18.98
2019-04-07T22:20:09.323Z,17.12
2019-04-07T22:22:38.889Z,18.27
2019-04-07T22:25:09.667Z,15.00
2019-04-07T22:27:38.965Z,14.43
2019-04-07T22:30:11.210Z,17.77
2019-04-07T22:32:40.738Z,17.20
2019-04-07T22:35:10.653Z,15.58
2019-04-07T22:37:39.905Z,16.82
2019-04-07T22:40:14.640Z,16.15
2019-04-07T22:42:45.478Z,15.80
2019-04-07T22:45:14.833Z,18.00
2019-04-07T22:47:44.526Z,17.02
2019-04-07T22:50:13.609Z,17.65
2019-04-07T22:52:42.475Z,22.65
2019-04-07T22:55:12.280Z,18.92
2019-04-07T22:57:41.371Z,18.60
2019-04-07T23:00:12.778Z,15.80
2019-04-07T23:02:42.369Z,18.12
2019-04-07T23:05:11.495Z,17.95
2019-04-07T23:07:40.341Z,19.23
2019-04-07T23:10:09.580Z,19.42
2019-04-07T23:12:40.833Z,22.13
2019-04-07T23:15:11.138Z,21.97
2019-04-07T23:17:40.125Z,20.80
2019-04-07T23:20:09.578Z,19.35
2019-04-07T23:22:38.753Z,20.43
2019-04-07T23:25:07.908Z,19.10
2019-04-07T23:27:37.894Z,23.42
2019-04-07T23:30:09.013Z,21.45
2019-04-07T23:32:38.431Z,19.30
2019-04-07T23:35:08.332Z,20.23
2019-04-07T23:37:37.166Z,20.70
2019-04-07T23:40:07.196Z,28.25
2019-04-07T23:42:36.224Z,23.12
2019-04-07T23:45:07.086Z,25.75
2019-04-07T23:47:36.665Z,22.70
2019-04-07T23:50:07.578Z,20.10
2019-04-07T23:52:36.417Z,21.33
2019-04-07T23:55:05.287Z,23.35
2019-04-07T23:57:34.139Z,22.55
